sensor_id;sensor_type;location;lat;lon;timestamp;P1;durP1;ratioP1;P2;durP2;ratioP2
6755;SDS011;3415;51.148;7.014;2023-08-24T00:01:36;4.83;;;3.50;;
6755;SDS011;3415;51.148;7.014;2023-08-24T00:04:03;5.83;;;3.33;;
6755;SDS011;3415;51.148;7.014;2023-08-24T00:06:30;5.17;;;3.10;;
6755;SDS011;3415;51.148;7.014;2023-08-24T00:08:59;6.47;;;3.53;;
6755;SDS011;3415;51.148;7.014;2023-08-24T00:11:26;9.23;;;2.70;;
6755;SDS011;3415;51.148;7.014;2023-08-24T00:13:53;5.07;;;2.67;;
6755;SDS011;3415;51.148;7.014;2023-08-24T00:16:20;3.93;;;3.03;;
6755;SDS011;3415;51.148;7.014;2023-08-24T00:18:47;3.93;;;2.80;;
6755;SDS011;3415;51.148;7.014;2023-08-24T00:21:15;6.67;;;3.50;;
6755;SDS011;3415;51.148;7.014;2023-08-24T00:23:44;4.00;;;3.10;;
6755;SDS011;3415;51.148;7.014;2023-08-24T00:26:12;6.80;;;2.47;;
6755;SDS011;3415;51.148;7.014;2023-08-24T00:28:41;7.30;;;2.77;;
6755;SDS011;3415;51.148;7.014;2023-08-24T00:31:09;9.70;;;3.20;;
6755;SDS011;3415;51.148;7.014;2023-08-24T00:33:36;4.03;;;2.70;;
6755;SDS011;3415;51.148;7.014;2023-08-24T00:36:05;4.50;;;3.07;;
6755;SDS011;3415;51.148;7.014;2023-08-24T00:38:32;11.87;;;3.17;;
6755;SDS011;3415;51.148;7.014;2023-08-24T00:40:59;5.77;;;3.43;;
6755;SDS011;3415;51.148;7.014;2023-08-24T00:43:28;10.70;;;3.10;;
6755;SDS011;3415;51.148;7.014;2023-08-24T00:45:56;5.10;;;2.80;;
6755;SDS011;3415;51.148;7.014;2023-08-24T00:48:26;3.83;;;2.93;;
6755;SDS011;3415;51.148;7.014;2023-08-24T00:50:53;7.10;;;2.80;;
6755;SDS011;3415;51.148;7.014;2023-08-24T00:53:21;6.63;;;3.10;;
6755;SDS011;3415;51.148;7.014;2023-08-24T00:55:51;6.77;;;3.30;;
6755;SDS011;3415;51.148;7.014;2023-08-24T00:58:18;5.47;;;3.30;;
6755;SDS011;3415;51.148;7.014;2023-08-24T01:00:47;6.23;;;3.30;;
6755;SDS011;3415;51.148;7.014;2023-08-24T01:03:14;5.87;;;3.60;;
6755;SDS011;3415;51.148;7.014;2023-08-24T01:05:42;8.07;;;3.77;;
6755;SDS011;3415;51.148;7.014;2023-08-24T01:08:10;6.37;;;3.03;;
6755;SDS011;3415;51.148;7.014;2023-08-24T01:10:38;5.50;;;2.90;;
6755;SDS011;3415;51.148;7.014;2023-08-24T01:13:21;5.93;;;3.10;;
6755;SDS011;3415;51.148;7.014;2023-08-24T01:15:58;5.37;;;2.90;;
6755;SDS011;3415;51.148;7.014;2023-08-24T01:18:31;4.73;;;2.67;;
6755;SDS011;3415;51.148;7.014;2023-08-24T01:21:01;7.93;;;3.53;;
6755;SDS011;3415;51.148;7.014;2023-08-24T01:23:32;4.70;;;3.00;;
6755;SDS011;3415;51.148;7.014;2023-08-24T01:26:14;4.27;;;2.90;;
6755;SDS011;3415;51.148;7.014;2023-08-24T01:28:45;4.00;;;2.77;;
6755;SDS011;3415;51.148;7.014;2023-08-24T01:31:13;5.07;;;2.50;;
6755;SDS011;3415;51.148;7.014;2023-08-24T01:33:41;5.67;;;2.57;;
6755;SDS011;3415;51.148;7.014;2023-08-24T01:36:09;6.07;;;2.43;;
6755;SDS011;3415;51.148;7.014;2023-08-24T01:38:37;6.60;;;2.90;;
6755;SDS011;3415;51.148;7.014;2023-08-24T01:41:08;4.73;;;2.93;;
6755;SDS011;3415;51.148;7.014;2023-08-24T01:43:40;5.50;;;3.00;;
6755;SDS011;3415;51.148;7.014;2023-08-24T01:46:10;4.97;;;2.73;;
6755;SDS011;3415;51.148;7.014;2023-08-24T01:48:41;6.10;;;3.10;;
6755;SDS011;3415;51.148;7.014;2023-08-24T01:51:09;3.63;;;2.83;;
6755;SDS011;3415;51.148;7.014;2023-08-24T01:53:36;3.50;;;2.60;;
6755;SDS011;3415;51.148;7.014;2023-08-24T01:56:08;4.40;;;2.77;;
6755;SDS011;3415;51.148;7.014;2023-08-24T01:58:36;6.53;;;2.77;;
6755;SDS011;3415;51.148;7.014;2023-08-24T02:01:04;10.53;;;3.30;;
6755;SDS011;3415;51.148;7.014;2023-08-24T02:03:31;8.40;;;2.57;;
6755;SDS011;3415;51.148;7.014;2023-08-24T02:05:58;4.90;;;2.50;;
6755;SDS011;3415;51.148;7.014;2023-08-24T02:08:25;3.63;;;2.60;;
6755;SDS011;3415;51.148;7.014;2023-08-24T02:10:52;3.50;;;2.60;;
6755;SDS011;3415;51.148;7.014;2023-08-24T02:13:19;5.07;;;3.07;;
6755;SDS011;3415;51.148;7.014;2023-08-24T02:15:46;8.30;;;3.00;;
6755;SDS011;3415;51.148;7.014;2023-08-24T02:18:15;3.93;;;2.50;;
6755;SDS011;3415;51.148;7.014;2023-08-24T02:20:42;5.30;;;2.87;;
6755;SDS011;3415;51.148;7.014;2023-08-24T02:23:08;4.00;;;2.83;;
6755;SDS011;3415;51.148;7.014;2023-08-24T02:25:41;3.07;;;2.47;;
6755;SDS011;3415;51.148;7.014;2023-08-24T02:28:08;6.40;;;2.43;;
6755;SDS011;3415;51.148;7.014;2023-08-24T02:30:36;3.70;;;2.73;;
6755;SDS011;3415;51.148;7.014;2023-08-24T02:33:04;7.00;;;2.93;;
6755;SDS011;3415;51.148;7.014;2023-08-24T02:35:32;3.70;;;2.97;;
6755;SDS011;3415;51.148;7.014;2023-08-24T02:37:59;3.40;;;2.50;;
6755;SDS011;3415;51.148;7.014;2023-08-24T02:40:26;3.20;;;2.70;;
6755;SDS011;3415;51.148;7.014;2023-08-24T02:42:53;6.17;;;3.20;;
6755;SDS011;3415;51.148;7.014;2023-08-24T02:45:20;4.33;;;2.77;;
6755;SDS011;3415;51.148;7.014;2023-08-24T02:47:47;6.40;;;2.47;;
6755;SDS011;3415;51.148;7.014;2023-08-24T02:50:14;3.87;;;2.80;;
6755;SDS011;3415;51.148;7.014;2023-08-24T02:52:42;5.10;;;2.70;;
6755;SDS011;3415;51.148;7.014;2023-08-24T02:55:10;5.77;;;3.03;;
6755;SDS011;3415;51.148;7.014;2023-08-24T02:57:38;4.40;;;2.50;;
6755;SDS011;3415;51.148;7.014;2023-08-24T03:00:05;5.30;;;2.77;;
6755;SDS011;3415;51.148;7.014;2023-08-24T03:02:34;4.70;;;2.80;;
6755;SDS011;3415;51.148;7.014;2023-08-24T03:05:02;3.87;;;2.70;;
6755;SDS011;3415;51.148;7.014;2023-08-24T03:07:30;6.13;;;2.57;;
6755;SDS011;3415;51.148;7.014;2023-08-24T03:09:58;5.83;;;2.90;;
6755;SDS011;3415;51.148;7.014;2023-08-24T03:12:25;3.80;;;3.17;;
6755;SDS011;3415;51.148;7.014;2023-08-24T03:14:52;4.23;;;3.00;;
6755;SDS011;3415;51.148;7.014;2023-08-24T03:17:19;3.93;;;2.70;;
6755;SDS011;3415;51.148;7.014;2023-08-24T03:19:47;6.07;;;3.00;;
6755;SDS011;3415;51.148;7.014;2023-08-24T03:22:14;8.07;;;3.20;;
6755;SDS011;3415;51.148;7.014;2023-08-24T03:24:40;6.30;;;2.90;;
6755;SDS011;3415;51.148;7.014;2023-08-24T03:27:09;7.00;;;3.23;;
6755;SDS011;3415;51.148;7.014;2023-08-24T03:29:36;8.33;;;3.17;;
6755;SDS011;3415;51.148;7.014;2023-08-24T03:32:03;5.03;;;3.10;;
6755;SDS011;3415;51.148;7.014;2023-08-24T03:34:30;9.40;;;3.37;;
6755;SDS011;3415;51.148;7.014;2023-08-24T03:36:57;5.37;;;3.40;;
6755;SDS011;3415;51.148;7.014;2023-08-24T03:39:24;11.77;;;4.93;;
6755;SDS011;3415;51.148;7.014;2023-08-24T03:41:51;7.90;;;3.50;;
6755;SDS011;3415;51.148;7.014;2023-08-24T03:44:19;4.80;;;3.07;;
6755;SDS011;3415;51.148;7.014;2023-08-24T03:46:46;7.40;;;2.70;;
6755;SDS011;3415;51.148;7.014;2023-08-24T03:49:13;4.07;;;3.50;;
6755;SDS011;3415;51.148;7.014;2023-08-24T03:51:40;6.10;;;2.73;;
6755;SDS011;3415;51.148;7.014;2023-08-24T03:54:07;3.90;;;2.43;;
6755;SDS011;3415;51.148;7.014;2023-08-24T03:56:34;8.07;;;2.90;;
6755;SDS011;3415;51.148;7.014;2023-08-24T03:59:01;6.60;;;2.80;;
6755;SDS011;3415;51.148;7.014;2023-08-24T04:01:29;8.10;;;3.30;;
6755;SDS011;3415;51.148;7.014;2023-08-24T04:03:56;4.77;;;2.70;;
6755;SDS011;3415;51.148;7.014;2023-08-24T04:06:23;7.97;;;3.13;;
6755;SDS011;3415;51.148;7.014;2023-08-24T04:08:50;4.43;;;2.97;;
6755;SDS011;3415;51.148;7.014;2023-08-24T04:11:18;7.53;;;2.90;;
6755;SDS011;3415;51.148;7.014;2023-08-24T04:13:45;8.40;;;2.97;;
6755;SDS011;3415;51.148;7.014;2023-08-24T04:16:12;3.70;;;2.67;;
6755;SDS011;3415;51.148;7.014;2023-08-24T04:18:40;5.57;;;3.10;;
6755;SDS011;3415;51.148;7.014;2023-08-24T04:21:07;6.50;;;3.30;;
6755;SDS011;3415;51.148;7.014;2023-08-24T04:23:34;5.20;;;3.17;;
6755;SDS011;3415;51.148;7.014;2023-08-24T04:26:01;3.73;;;2.67;;
6755;SDS011;3415;51.148;7.014;2023-08-24T04:28:30;5.33;;;3.00;;
6755;SDS011;3415;51.148;7.014;2023-08-24T04:30:57;3.67;;;2.80;;
6755;SDS011;3415;51.148;7.014;2023-08-24T04:33:24;7.30;;;3.50;;
6755;SDS011;3415;51.148;7.014;2023-08-24T04:35:52;3.47;;;2.70;;
6755;SDS011;3415;51.148;7.014;2023-08-24T04:38:19;6.27;;;2.90;;
6755;SDS011;3415;51.148;7.014;2023-08-24T04:40:46;4.20;;;3.00;;
6755;SDS011;3415;51.148;7.014;2023-08-24T04:43:16;8.03;;;3.80;;
6755;SDS011;3415;51.148;7.014;2023-08-24T04:45:45;9.27;;;3.70;;
6755;SDS011;3415;51.148;7.014;2023-08-24T04:48:13;14.63;;;3.40;;
6755;SDS011;3415;51.148;7.014;2023-08-24T04:50:41;4.93;;;2.93;;
6755;SDS011;3415;51.148;7.014;2023-08-24T04:53:11;5.97;;;3.00;;
6755;SDS011;3415;51.148;7.014;2023-08-24T04:55:40;4.17;;;3.13;;
6755;SDS011;3415;51.148;7.014;2023-08-24T04:58:07;15.70;;;3.70;;
6755;SDS011;3415;51.148;7.014;2023-08-24T05:00:35;4.17;;;3.10;;
6755;SDS011;3415;51.148;7.014;2023-08-24T05:03:02;7.63;;;3.20;;
6755;SDS011;3415;51.148;7.014;2023-08-24T05:05:30;5.10;;;3.33;;
6755;SDS011;3415;51.148;7.014;2023-08-24T05:07:58;5.63;;;3.77;;
6755;SDS011;3415;51.148;7.014;2023-08-24T05:10:31;6.73;;;3.60;;
6755;SDS011;3415;51.148;7.014;2023-08-24T05:12:59;5.00;;;3.77;;
6755;SDS011;3415;51.148;7.014;2023-08-24T05:15:26;4.83;;;3.10;;
6755;SDS011;3415;51.148;7.014;2023-08-24T05:17:53;4.63;;;3.00;;
6755;SDS011;3415;51.148;7.014;2023-08-24T05:20:21;7.43;;;3.63;;
6755;SDS011;3415;51.148;7.014;2023-08-24T05:22:49;6.23;;;3.90;;
6755;SDS011;3415;51.148;7.014;2023-08-24T05:25:16;6.73;;;4.60;;
6755;SDS011;3415;51.148;7.014;2023-08-24T05:27:44;6.27;;;4.50;;
6755;SDS011;3415;51.148;7.014;2023-08-24T05:30:11;6.53;;;4.13;;
6755;SDS011;3415;51.148;7.014;2023-08-24T05:32:39;6.80;;;4.10;;
6755;SDS011;3415;51.148;7.014;2023-08-24T05:35:06;5.70;;;4.60;;
6755;SDS011;3415;51.148;7.014;2023-08-24T05:37:35;5.70;;;4.53;;
6755;SDS011;3415;51.148;7.014;2023-08-24T05:40:02;9.03;;;3.53;;
6755;SDS011;3415;51.148;7.014;2023-08-24T05:42:30;4.60;;;4.10;;
6755;SDS011;3415;51.148;7.014;2023-08-24T05:44:58;11.53;;;6.10;;
6755;SDS011;3415;51.148;7.014;2023-08-24T05:47:25;5.47;;;3.87;;
6755;SDS011;3415;51.148;7.014;2023-08-24T05:49:52;7.00;;;3.97;;
6755;SDS011;3415;51.148;7.014;2023-08-24T05:52:19;12.20;;;4.37;;
6755;SDS011;3415;51.148;7.014;2023-08-24T05:54:46;7.00;;;4.20;;
6755;SDS011;3415;51.148;7.014;2023-08-24T05:57:13;7.23;;;4.07;;
6755;SDS011;3415;51.148;7.014;2023-08-24T05:59:40;4.93;;;3.90;;
6755;SDS011;3415;51.148;7.014;2023-08-24T06:02:08;5.90;;;3.53;;
6755;SDS011;3415;51.148;7.014;2023-08-24T06:04:35;5.87;;;4.30;;
6755;SDS011;3415;51.148;7.014;2023-08-24T06:07:02;5.90;;;3.83;;
6755;SDS011;3415;51.148;7.014;2023-08-24T06:09:29;4.70;;;3.70;;
6755;SDS011;3415;51.148;7.014;2023-08-24T06:11:57;5.50;;;3.80;;
6755;SDS011;3415;51.148;7.014;2023-08-24T06:14:24;6.30;;;3.63;;
6755;SDS011;3415;51.148;7.014;2023-08-24T06:16:51;3.50;;;2.93;;
6755;SDS011;3415;51.148;7.014;2023-08-24T06:19:20;10.43;;;4.33;;
6755;SDS011;3415;51.148;7.014;2023-08-24T06:21:47;6.30;;;3.73;;
6755;SDS011;3415;51.148;7.014;2023-08-24T06:24:14;5.60;;;3.77;;
6755;SDS011;3415;51.148;7.014;2023-08-24T06:26:41;5.07;;;3.80;;
6755;SDS011;3415;51.148;7.014;2023-08-24T06:29:08;8.50;;;4.30;;
6755;SDS011;3415;51.148;7.014;2023-08-24T06:31:35;7.00;;;3.70;;
6755;SDS011;3415;51.148;7.014;2023-08-24T06:34:02;9.30;;;4.27;;
6755;SDS011;3415;51.148;7.014;2023-08-24T06:36:31;4.83;;;3.73;;
6755;SDS011;3415;51.148;7.014;2023-08-24T06:38:58;9.97;;;4.13;;
6755;SDS011;3415;51.148;7.014;2023-08-24T06:41:25;7.93;;;4.27;;
6755;SDS011;3415;51.148;7.014;2023-08-24T06:43:52;6.30;;;4.17;;
6755;SDS011;3415;51.148;7.014;2023-08-24T06:46:20;7.40;;;5.20;;
6755;SDS011;3415;51.148;7.014;2023-08-24T06:48:47;5.87;;;4.20;;
6755;SDS011;3415;51.148;7.014;2023-08-24T06:51:14;8.57;;;6.30;;
6755;SDS011;3415;51.148;7.014;2023-08-24T06:53:42;9.37;;;6.60;;
6755;SDS011;3415;51.148;7.014;2023-08-24T06:56:11;12.70;;;9.47;;
6755;SDS011;3415;51.148;7.014;2023-08-24T06:58:39;11.27;;;7.83;;
6755;SDS011;3415;51.148;7.014;2023-08-24T07:01:07;15.23;;;12.23;;
6755;SDS011;3415;51.148;7.014;2023-08-24T07:03:36;20.07;;;18.13;;
6755;SDS011;3415;51.148;7.014;2023-08-24T07:06:03;19.50;;;17.50;;
6755;SDS011;3415;51.148;7.014;2023-08-24T07:08:32;21.30;;;19.47;;
6755;SDS011;3415;51.148;7.014;2023-08-24T07:11:01;23.63;;;21.73;;
6755;SDS011;3415;51.148;7.014;2023-08-24T07:13:28;21.97;;;19.90;;
6755;SDS011;3415;51.148;7.014;2023-08-24T07:15:55;26.10;;;23.60;;
6755;SDS011;3415;51.148;7.014;2023-08-24T07:18:22;17.70;;;16.00;;
6755;SDS011;3415;51.148;7.014;2023-08-24T07:20:49;17.60;;;15.53;;
6755;SDS011;3415;51.148;7.014;2023-08-24T07:23:16;17.37;;;14.80;;
6755;SDS011;3415;51.148;7.014;2023-08-24T07:25:43;14.27;;;11.97;;
6755;SDS011;3415;51.148;7.014;2023-08-24T07:28:11;21.60;;;14.00;;
6755;SDS011;3415;51.148;7.014;2023-08-24T07:30:38;16.50;;;9.97;;
6755;SDS011;3415;51.148;7.014;2023-08-24T07:33:05;14.40;;;12.27;;
6755;SDS011;3415;51.148;7.014;2023-08-24T07:35:32;14.20;;;10.50;;
6755;SDS011;3415;51.148;7.014;2023-08-24T07:37:59;15.07;;;9.13;;
6755;SDS011;3415;51.148;7.014;2023-08-24T07:40:27;16.70;;;9.93;;
6755;SDS011;3415;51.148;7.014;2023-08-24T07:42:54;14.30;;;7.80;;
6755;SDS011;3415;51.148;7.014;2023-08-24T07:45:23;11.80;;;6.00;;
6755;SDS011;3415;51.148;7.014;2023-08-24T07:47:49;14.57;;;8.30;;
6755;SDS011;3415;51.148;7.014;2023-08-24T07:50:16;12.70;;;7.30;;
6755;SDS011;3415;51.148;7.014;2023-08-24T07:52:43;15.43;;;10.20;;
6755;SDS011;3415;51.148;7.014;2023-08-24T07:55:10;13.90;;;5.70;;
6755;SDS011;3415;51.148;7.014;2023-08-24T07:57:37;15.30;;;10.70;;
6755;SDS011;3415;51.148;7.014;2023-08-24T08:00:04;14.73;;;8.20;;
6755;SDS011;3415;51.148;7.014;2023-08-24T08:02:36;13.23;;;8.53;;
6755;SDS011;3415;51.148;7.014;2023-08-24T08:05:03;14.33;;;5.63;;
6755;SDS011;3415;51.148;7.014;2023-08-24T08:07:32;10.70;;;4.90;;
6755;SDS011;3415;51.148;7.014;2023-08-24T08:09:59;12.40;;;6.10;;
6755;SDS011;3415;51.148;7.014;2023-08-24T08:12:27;12.83;;;6.83;;
6755;SDS011;3415;51.148;7.014;2023-08-24T08:14:57;21.03;;;9.67;;
6755;SDS011;3415;51.148;7.014;2023-08-24T08:17:24;12.40;;;5.00;;
6755;SDS011;3415;51.148;7.014;2023-08-24T08:19:55;13.63;;;7.87;;
6755;SDS011;3415;51.148;7.014;2023-08-24T08:22:22;13.60;;;7.27;;
6755;SDS011;3415;51.148;7.014;2023-08-24T08:24:50;13.93;;;8.60;;
6755;SDS011;3415;51.148;7.014;2023-08-24T08:27:19;12.73;;;6.00;;
6755;SDS011;3415;51.148;7.014;2023-08-24T08:29:46;12.67;;;6.33;;
6755;SDS011;3415;51.148;7.014;2023-08-24T08:32:13;12.67;;;5.23;;
6755;SDS011;3415;51.148;7.014;2023-08-24T08:34:40;13.80;;;5.03;;
6755;SDS011;3415;51.148;7.014;2023-08-24T08:37:08;12.67;;;5.47;;
6755;SDS011;3415;51.148;7.014;2023-08-24T08:39:35;15.70;;;7.27;;
6755;SDS011;3415;51.148;7.014;2023-08-24T08:42:03;13.57;;;5.50;;
6755;SDS011;3415;51.148;7.014;2023-08-24T08:44:30;12.13;;;5.53;;
6755;SDS011;3415;51.148;7.014;2023-08-24T08:46:58;10.50;;;3.90;;
6755;SDS011;3415;51.148;7.014;2023-08-24T08:49:25;11.43;;;4.27;;
6755;SDS011;3415;51.148;7.014;2023-08-24T08:51:53;12.13;;;3.80;;
6755;SDS011;3415;51.148;7.014;2023-08-24T08:54:21;11.50;;;5.90;;
6755;SDS011;3415;51.148;7.014;2023-08-24T08:56:48;10.33;;;3.40;;
6755;SDS011;3415;51.148;7.014;2023-08-24T08:59:16;12.50;;;5.10;;
6755;SDS011;3415;51.148;7.014;2023-08-24T09:01:44;13.20;;;4.27;;
6755;SDS011;3415;51.148;7.014;2023-08-24T09:04:15;10.20;;;4.00;;
6755;SDS011;3415;51.148;7.014;2023-08-24T09:06:43;11.37;;;4.87;;
6755;SDS011;3415;51.148;7.014;2023-08-24T09:09:10;12.03;;;5.23;;
6755;SDS011;3415;51.148;7.014;2023-08-24T09:11:39;10.43;;;4.10;;
6755;SDS011;3415;51.148;7.014;2023-08-24T09:14:07;11.33;;;4.60;;
6755;SDS011;3415;51.148;7.014;2023-08-24T09:16:34;13.43;;;7.73;;
6755;SDS011;3415;51.148;7.014;2023-08-24T09:19:02;10.73;;;4.23;;
6755;SDS011;3415;51.148;7.014;2023-08-24T09:21:32;12.60;;;4.20;;
6755;SDS011;3415;51.148;7.014;2023-08-24T09:24:04;11.67;;;4.80;;
6755;SDS011;3415;51.148;7.014;2023-08-24T09:26:34;2.30;;;2.00;;
6755;SDS011;3415;51.148;7.014;2023-08-24T09:29:11;2.50;;;2.07;;
6755;SDS011;3415;51.148;7.014;2023-08-24T09:31:39;3.60;;;1.90;;
6755;SDS011;3415;51.148;7.014;2023-08-24T09:34:09;3.00;;;2.40;;
6755;SDS011;3415;51.148;7.014;2023-08-24T09:36:37;4.27;;;2.20;;
6755;SDS011;3415;51.148;7.014;2023-08-24T09:39:04;2.10;;;1.60;;
6755;SDS011;3415;51.148;7.014;2023-08-24T09:41:39;5.67;;;2.20;;
6755;SDS011;3415;51.148;7.014;2023-08-24T09:44:07;3.43;;;3.07;;
6755;SDS011;3415;51.148;7.014;2023-08-24T09:46:37;4.80;;;1.93;;
6755;SDS011;3415;51.148;7.014;2023-08-24T09:49:04;3.00;;;2.27;;
6755;SDS011;3415;51.148;7.014;2023-08-24T09:51:33;3.37;;;2.00;;
6755;SDS011;3415;51.148;7.014;2023-08-24T09:54:01;4.23;;;1.70;;
6755;SDS011;3415;51.148;7.014;2023-08-24T09:56:34;2.20;;;2.00;;
6755;SDS011;3415;51.148;7.014;2023-08-24T09:59:04;2.10;;;1.90;;
6755;SDS011;3415;51.148;7.014;2023-08-24T10:01:41;2.30;;;1.90;;
6755;SDS011;3415;51.148;7.014;2023-08-24T10:04:09;2.00;;;1.90;;
6755;SDS011;3415;51.148;7.014;2023-08-24T10:06:38;2.60;;;1.80;;
6755;SDS011;3415;51.148;7.014;2023-08-24T10:09:07;3.23;;;2.03;;
6755;SDS011;3415;51.148;7.014;2023-08-24T10:11:40;5.57;;;2.70;;
6755;SDS011;3415;51.148;7.014;2023-08-24T10:14:15;2.27;;;2.10;;
6755;SDS011;3415;51.148;7.014;2023-08-24T10:16:52;3.70;;;2.20;;
6755;SDS011;3415;51.148;7.014;2023-08-24T10:19:20;2.53;;;2.33;;
6755;SDS011;3415;51.148;7.014;2023-08-24T10:21:48;2.87;;;2.30;;
6755;SDS011;3415;51.148;7.014;2023-08-24T10:24:16;4.50;;;1.87;;
6755;SDS011;3415;51.148;7.014;2023-08-24T10:26:46;2.33;;;2.13;;
6755;SDS011;3415;51.148;7.014;2023-08-24T10:29:13;3.43;;;2.30;;
6755;SDS011;3415;51.148;7.014;2023-08-24T10:31:42;1.90;;;1.80;;
6755;SDS011;3415;51.148;7.014;2023-08-24T10:34:11;8.50;;;2.27;;
6755;SDS011;3415;51.148;7.014;2023-08-24T10:36:38;2.60;;;2.00;;
6755;SDS011;3415;51.148;7.014;2023-08-24T10:39:05;2.87;;;1.67;;
6755;SDS011;3415;51.148;7.014;2023-08-24T10:41:45;3.00;;;2.17;;
6755;SDS011;3415;51.148;7.014;2023-08-24T10:44:19;1.93;;;1.83;;
6755;SDS011;3415;51.148;7.014;2023-08-24T10:47:07;3.80;;;2.60;;
6755;SDS011;3415;51.148;7.014;2023-08-24T10:49:40;2.60;;;1.97;;
6755;SDS011;3415;51.148;7.014;2023-08-24T10:52:17;2.90;;;2.10;;
6755;SDS011;3415;51.148;7.014;2023-08-24T10:54:46;5.13;;;2.10;;
6755;SDS011;3415;51.148;7.014;2023-08-24T10:57:18;6.87;;;2.17;;
6755;SDS011;3415;51.148;7.014;2023-08-24T10:59:57;3.97;;;2.23;;
6755;SDS011;3415;51.148;7.014;2023-08-24T11:02:25;3.60;;;2.00;;
6755;SDS011;3415;51.148;7.014;2023-08-24T11:05:15;4.40;;;2.10;;
6755;SDS011;3415;51.148;7.014;2023-08-24T11:07:51;2.20;;;1.73;;
6755;SDS011;3415;51.148;7.014;2023-08-24T11:10:20;3.27;;;2.13;;
6755;SDS011;3415;51.148;7.014;2023-08-24T11:13:04;6.17;;;2.60;;
6755;SDS011;3415;51.148;7.014;2023-08-24T11:15:39;2.30;;;2.00;;
6755;SDS011;3415;51.148;7.014;2023-08-24T11:20:59;4.23;;;3.13;;
6755;SDS011;3415;51.148;7.014;2023-08-24T11:23:28;4.70;;;2.53;;
6755;SDS011;3415;51.148;7.014;2023-08-24T11:25:55;5.53;;;2.43;;
6755;SDS011;3415;51.148;7.014;2023-08-24T11:28:25;3.00;;;2.00;;
6755;SDS011;3415;51.148;7.014;2023-08-24T11:30:53;4.43;;;1.90;;
6755;SDS011;3415;51.148;7.014;2023-08-24T11:33:28;3.20;;;2.13;;
6755;SDS011;3415;51.148;7.014;2023-08-24T11:35:58;2.50;;;2.23;;
6755;SDS011;3415;51.148;7.014;2023-08-24T11:38:34;5.00;;;2.70;;
6755;SDS011;3415;51.148;7.014;2023-08-24T11:41:09;2.67;;;2.17;;
6755;SDS011;3415;51.148;7.014;2023-08-24T11:43:38;2.37;;;2.20;;
6755;SDS011;3415;51.148;7.014;2023-08-24T11:46:05;4.73;;;2.27;;
6755;SDS011;3415;51.148;7.014;2023-08-24T11:48:32;4.67;;;2.30;;
6755;SDS011;3415;51.148;7.014;2023-08-24T11:51:03;4.53;;;1.90;;
6755;SDS011;3415;51.148;7.014;2023-08-24T11:53:30;4.47;;;2.77;;
6755;SDS011;3415;51.148;7.014;2023-08-24T11:55:57;2.77;;;2.03;;
6755;SDS011;3415;51.148;7.014;2023-08-24T11:58:27;6.60;;;2.30;;
6755;SDS011;3415;51.148;7.014;2023-08-24T12:00:54;5.30;;;2.30;;
6755;SDS011;3415;51.148;7.014;2023-08-24T12:03:21;2.70;;;2.03;;
6755;SDS011;3415;51.148;7.014;2023-08-24T12:05:48;5.67;;;1.90;;
6755;SDS011;3415;51.148;7.014;2023-08-24T12:08:16;2.10;;;1.80;;
6755;SDS011;3415;51.148;7.014;2023-08-24T12:10:43;1.90;;;1.80;;
6755;SDS011;3415;51.148;7.014;2023-08-24T12:13:11;3.17;;;2.20;;
6755;SDS011;3415;51.148;7.014;2023-08-24T12:15:40;2.47;;;2.27;;
6755;SDS011;3415;51.148;7.014;2023-08-24T12:18:08;4.83;;;2.37;;
6755;SDS011;3415;51.148;7.014;2023-08-24T12:20:36;5.43;;;1.83;;
6755;SDS011;3415;51.148;7.014;2023-08-24T12:23:03;2.00;;;1.70;;
6755;SDS011;3415;51.148;7.014;2023-08-24T12:25:35;2.50;;;1.87;;
6755;SDS011;3415;51.148;7.014;2023-08-24T12:28:09;4.40;;;2.07;;
6755;SDS011;3415;51.148;7.014;2023-08-24T12:30:44;5.60;;;1.97;;
6755;SDS011;3415;51.148;7.014;2023-08-24T12:33:22;2.93;;;2.10;;
6755;SDS011;3415;51.148;7.014;2023-08-24T12:35:50;2.50;;;2.30;;
6755;SDS011;3415;51.148;7.014;2023-08-24T12:38:17;4.60;;;1.97;;
6755;SDS011;3415;51.148;7.014;2023-08-24T12:40:46;4.57;;;2.67;;
6755;SDS011;3415;51.148;7.014;2023-08-24T12:43:13;4.00;;;2.73;;
6755;SDS011;3415;51.148;7.014;2023-08-24T12:45:40;3.30;;;2.27;;
6755;SDS011;3415;51.148;7.014;2023-08-24T12:48:07;3.40;;;2.17;;
6755;SDS011;3415;51.148;7.014;2023-08-24T12:50:35;2.20;;;2.10;;
6755;SDS011;3415;51.148;7.014;2023-08-24T12:53:03;5.70;;;2.70;;
6755;SDS011;3415;51.148;7.014;2023-08-24T12:55:31;2.13;;;1.93;;
6755;SDS011;3415;51.148;7.014;2023-08-24T12:58:00;3.60;;;2.23;;
6755;SDS011;3415;51.148;7.014;2023-08-24T13:00:27;4.33;;;2.30;;
6755;SDS011;3415;51.148;7.014;2023-08-24T13:02:55;2.20;;;1.63;;
6755;SDS011;3415;51.148;7.014;2023-08-24T13:05:22;2.90;;;1.80;;
6755;SDS011;3415;51.148;7.014;2023-08-24T13:07:49;2.67;;;2.47;;
6755;SDS011;3415;51.148;7.014;2023-08-24T13:10:16;2.90;;;2.60;;
6755;SDS011;3415;51.148;7.014;2023-08-24T13:12:43;4.77;;;2.33;;
6755;SDS011;3415;51.148;7.014;2023-08-24T13:15:11;4.93;;;2.50;;
6755;SDS011;3415;51.148;7.014;2023-08-24T13:17:40;2.63;;;2.43;;
6755;SDS011;3415;51.148;7.014;2023-08-24T13:20:07;3.83;;;2.60;;
6755;SDS011;3415;51.148;7.014;2023-08-24T13:22:35;2.10;;;1.90;;
6755;SDS011;3415;51.148;7.014;2023-08-24T13:25:02;3.40;;;2.30;;
6755;SDS011;3415;51.148;7.014;2023-08-24T13:27:30;4.03;;;2.67;;
6755;SDS011;3415;51.148;7.014;2023-08-24T13:29:59;3.00;;;2.37;;
6755;SDS011;3415;51.148;7.014;2023-08-24T13:32:27;3.80;;;2.43;;
6755;SDS011;3415;51.148;7.014;2023-08-24T13:34:54;3.97;;;2.47;;
6755;SDS011;3415;51.148;7.014;2023-08-24T13:37:22;3.50;;;2.27;;
6755;SDS011;3415;51.148;7.014;2023-08-24T13:39:49;3.13;;;2.27;;
6755;SDS011;3415;51.148;7.014;2023-08-24T13:42:16;2.57;;;2.37;;
6755;SDS011;3415;51.148;7.014;2023-08-24T13:44:44;6.63;;;2.30;;
6755;SDS011;3415;51.148;7.014;2023-08-24T13:47:11;5.20;;;2.20;;
6755;SDS011;3415;51.148;7.014;2023-08-24T13:49:40;7.73;;;3.47;;
6755;SDS011;3415;51.148;7.014;2023-08-24T13:52:07;6.07;;;3.37;;
6755;SDS011;3415;51.148;7.014;2023-08-24T13:54:34;7.20;;;2.67;;
6755;SDS011;3415;51.148;7.014;2023-08-24T13:57:01;3.97;;;2.90;;
6755;SDS011;3415;51.148;7.014;2023-08-24T13:59:29;3.43;;;2.67;;
6755;SDS011;3415;51.148;7.014;2023-08-24T14:01:56;4.23;;;2.63;;
6755;SDS011;3415;51.148;7.014;2023-08-24T14:04:23;7.77;;;2.67;;
6755;SDS011;3415;51.148;7.014;2023-08-24T14:06:51;4.17;;;3.53;;
6755;SDS011;3415;51.148;7.014;2023-08-24T14:09:18;4.40;;;2.77;;
6755;SDS011;3415;51.148;7.014;2023-08-24T14:11:45;8.50;;;2.27;;
6755;SDS011;3415;51.148;7.014;2023-08-24T14:14:13;3.60;;;2.40;;
6755;SDS011;3415;51.148;7.014;2023-08-24T14:16:40;11.80;;;3.50;;
6755;SDS011;3415;51.148;7.014;2023-08-24T14:19:07;4.47;;;2.37;;
6755;SDS011;3415;51.148;7.014;2023-08-24T14:21:34;3.17;;;2.33;;
6755;SDS011;3415;51.148;7.014;2023-08-24T14:24:03;3.53;;;2.63;;
6755;SDS011;3415;51.148;7.014;2023-08-24T14:26:30;4.87;;;2.40;;
6755;SDS011;3415;51.148;7.014;2023-08-24T14:28:57;6.27;;;2.37;;
6755;SDS011;3415;51.148;7.014;2023-08-24T14:31:25;4.47;;;2.47;;
6755;SDS011;3415;51.148;7.014;2023-08-24T14:33:53;4.70;;;2.67;;
6755;SDS011;3415;51.148;7.014;2023-08-24T14:36:21;2.77;;;2.20;;
6755;SDS011;3415;51.148;7.014;2023-08-24T14:38:49;2.80;;;2.53;;
6755;SDS011;3415;51.148;7.014;2023-08-24T14:41:19;6.03;;;2.73;;
6755;SDS011;3415;51.148;7.014;2023-08-24T14:43:46;6.57;;;2.03;;
6755;SDS011;3415;51.148;7.014;2023-08-24T14:46:13;12.97;;;2.87;;
6755;SDS011;3415;51.148;7.014;2023-08-24T14:48:40;8.87;;;2.50;;
6755;SDS011;3415;51.148;7.014;2023-08-24T14:51:07;3.20;;;2.37;;
6755;SDS011;3415;51.148;7.014;2023-08-24T14:53:34;4.50;;;2.90;;
6755;SDS011;3415;51.148;7.014;2023-08-24T14:56:02;3.00;;;2.43;;
6755;SDS011;3415;51.148;7.014;2023-08-24T14:58:30;3.47;;;1.80;;
6755;SDS011;3415;51.148;7.014;2023-08-24T15:00:57;2.00;;;1.80;;
6755;SDS011;3415;51.148;7.014;2023-08-24T15:03:24;5.50;;;2.83;;
6755;SDS011;3415;51.148;7.014;2023-08-24T15:05:58;5.63;;;2.43;;
6755;SDS011;3415;51.148;7.014;2023-08-24T15:08:29;3.37;;;2.20;;
6755;SDS011;3415;51.148;7.014;2023-08-24T15:10:57;4.83;;;2.27;;
6755;SDS011;3415;51.148;7.014;2023-08-24T15:13:26;2.67;;;1.83;;
6755;SDS011;3415;51.148;7.014;2023-08-24T15:15:56;2.93;;;2.20;;
6755;SDS011;3415;51.148;7.014;2023-08-24T15:18:24;4.50;;;1.93;;
6755;SDS011;3415;51.148;7.014;2023-08-24T15:20:52;6.20;;;2.20;;
6755;SDS011;3415;51.148;7.014;2023-08-24T15:23:22;3.90;;;2.27;;